CheckWX is a tool to help pilots better visualize weather data.  It is not intended as a substitute for an official pre-flight weather briefing.

10:52:08 UTC

KHVR TAF
Havre City-County Airport
Havre, Montana, USA
KHVR 260538Z 2606/2706 16005KT P6SM SCT070 SCT150 FM261700 10009KT P6SM -SHRA SCT040 BKN080 PROB30 2700/2706 VRB20G30KT 4SM TSRAGS SCT015 BKN030CB

Jun-26@
06:00 UTC

Jun-26 @ 06:00 UTC

Jun-26@
17:00 UTC

Jun-26 @ 17:00 UTC

KHVR 260538Z 2606/2706 16005KT P6SM SCT070 SCT150
Wind
  • 160° at 5 KTS
Cloud Levels
  • Scattered at 7,000' AGL
  • Scattered at 15,000' AGL

Jun-26@
17:00 UTC

Jun-26 @ 17:00 UTC

Jun-27@
06:00 UTC

Jun-27 @ 06:00 UTC

FM261700 10009KT P6SM -SHRA SCT040 BKN080

From

From Standard forecast or significant change

Wind
  • 100° at 9 KTS
Conditions
Light Rain
Cloud Levels
  • Scattered at 4,000' AGL
  • Broken at 8,000' AGL

Jun-27@
00:00 UTC

Jun-27 @ 00:00 UTC

Jun-27@
06:00 UTC

Jun-27 @ 06:00 UTC

PROB30 2700/2706 VRB20G30KT 4SM TSRAGS SCT015 BKN030CB

Probable - 30% Likelihood

Probable - 30% Likelihood during this time.

Wind
  • Variable at 20 KTS
  • {Gusting to 30 KTS
Conditions
Thunderstorm, Rain, Thunderstorm, Small hail
Cloud Levels
  • Scattered at 1,500' AGL
  • Broken at 3,000' AGL